sensor_id;sensor_type;location;lat;lon;timestamp;P1;durP1;ratioP1;P2;durP2;ratioP2
43628;SDS011;56545;48.224;11.678;2023-08-06T00:02:25;11.68;;;7.28;;
43628;SDS011;56545;48.224;11.678;2023-08-06T00:04:51;13.85;;;8.60;;
43628;SDS011;56545;48.224;11.678;2023-08-06T00:07:17;8.60;;;5.70;;
43628;SDS011;56545;48.224;11.678;2023-08-06T00:09:43;8.80;;;5.68;;
43628;SDS011;56545;48.224;11.678;2023-08-06T00:12:09;7.65;;;5.30;;
43628;SDS011;56545;48.224;11.678;2023-08-06T00:14:35;7.60;;;5.47;;
43628;SDS011;56545;48.224;11.678;2023-08-06T00:17:01;7.65;;;5.10;;
43628;SDS011;56545;48.224;11.678;2023-08-06T00:19:27;8.05;;;4.85;;
43628;SDS011;56545;48.224;11.678;2023-08-06T00:21:53;7.03;;;4.68;;
43628;SDS011;56545;48.224;11.678;2023-08-06T00:24:19;9.85;;;4.70;;
43628;SDS011;56545;48.224;11.678;2023-08-06T00:26:45;7.40;;;4.40;;
43628;SDS011;56545;48.224;11.678;2023-08-06T00:29:10;6.60;;;4.45;;
43628;SDS011;56545;48.224;11.678;2023-08-06T00:31:36;7.30;;;4.20;;
43628;SDS011;56545;48.224;11.678;2023-08-06T00:34:02;7.03;;;4.30;;
43628;SDS011;56545;48.224;11.678;2023-08-06T00:36:28;7.80;;;4.10;;
43628;SDS011;56545;48.224;11.678;2023-08-06T00:38:54;7.10;;;3.92;;
43628;SDS011;56545;48.224;11.678;2023-08-06T00:41:20;6.38;;;3.83;;
43628;SDS011;56545;48.224;11.678;2023-08-06T00:43:46;5.45;;;3.40;;
43628;SDS011;56545;48.224;11.678;2023-08-06T00:46:12;7.25;;;3.88;;
43628;SDS011;56545;48.224;11.678;2023-08-06T00:48:39;7.13;;;4.00;;
43628;SDS011;56545;48.224;11.678;2023-08-06T00:51:06;6.30;;;3.63;;
43628;SDS011;56545;48.224;11.678;2023-08-06T00:53:34;7.03;;;3.90;;
43628;SDS011;56545;48.224;11.678;2023-08-06T00:56:00;7.05;;;3.75;;
43628;SDS011;56545;48.224;11.678;2023-08-06T00:58:27;7.32;;;3.50;;
43628;SDS011;56545;48.224;11.678;2023-08-06T01:00:53;5.72;;;3.22;;
43628;SDS011;56545;48.224;11.678;2023-08-06T01:03:19;6.03;;;3.00;;
43628;SDS011;56545;48.224;11.678;2023-08-06T01:05:45;6.88;;;3.00;;
43628;SDS011;56545;48.224;11.678;2023-08-06T01:11:11;5.53;;;3.03;;
43628;SDS011;56545;48.224;11.678;2023-08-06T01:13:58;5.13;;;2.65;;
43628;SDS011;56545;48.224;11.678;2023-08-06T01:16:32;4.40;;;2.38;;
43628;SDS011;56545;48.224;11.678;2023-08-06T01:19:00;4.38;;;2.47;;
43628;SDS011;56545;48.224;11.678;2023-08-06T01:21:26;3.60;;;2.17;;
43628;SDS011;56545;48.224;11.678;2023-08-06T01:23:52;3.80;;;2.22;;
43628;SDS011;56545;48.224;11.678;2023-08-06T01:26:25;3.70;;;2.03;;
43628;SDS011;56545;48.224;11.678;2023-08-06T01:31:31;4.10;;;2.30;;
43628;SDS011;56545;48.224;11.678;2023-08-06T01:33:59;5.05;;;2.45;;
43628;SDS011;56545;48.224;11.678;2023-08-06T01:36:27;5.47;;;2.40;;
43628;SDS011;56545;48.224;11.678;2023-08-06T01:38:55;4.90;;;2.70;;
43628;SDS011;56545;48.224;11.678;2023-08-06T01:41:22;6.07;;;3.13;;
43628;SDS011;56545;48.224;11.678;2023-08-06T01:43:48;4.85;;;2.97;;
43628;SDS011;56545;48.224;11.678;2023-08-06T01:46:14;6.85;;;3.08;;
43628;SDS011;56545;48.224;11.678;2023-08-06T01:48:40;5.70;;;2.85;;
43628;SDS011;56545;48.224;11.678;2023-08-06T01:51:06;6.10;;;3.30;;
43628;SDS011;56545;48.224;11.678;2023-08-06T01:53:32;6.65;;;3.20;;
43628;SDS011;56545;48.224;11.678;2023-08-06T01:55:58;5.32;;;3.10;;
43628;SDS011;56545;48.224;11.678;2023-08-06T01:58:24;5.72;;;3.30;;
43628;SDS011;56545;48.224;11.678;2023-08-06T02:00:50;7.13;;;3.50;;
43628;SDS011;56545;48.224;11.678;2023-08-06T02:03:16;6.05;;;3.63;;
43628;SDS011;56545;48.224;11.678;2023-08-06T02:05:42;6.07;;;3.85;;
43628;SDS011;56545;48.224;11.678;2023-08-06T02:08:08;5.57;;;3.25;;
43628;SDS011;56545;48.224;11.678;2023-08-06T02:10:34;6.07;;;3.30;;
43628;SDS011;56545;48.224;11.678;2023-08-06T02:13:00;5.90;;;3.20;;
43628;SDS011;56545;48.224;11.678;2023-08-06T02:15:26;5.63;;;3.50;;
43628;SDS011;56545;48.224;11.678;2023-08-06T02:17:52;5.78;;;3.35;;
43628;SDS011;56545;48.224;11.678;2023-08-06T02:20:18;4.65;;;2.90;;
43628;SDS011;56545;48.224;11.678;2023-08-06T02:22:44;6.00;;;3.22;;
43628;SDS011;56545;48.224;11.678;2023-08-06T02:25:10;6.90;;;3.20;;
43628;SDS011;56545;48.224;11.678;2023-08-06T02:27:36;6.55;;;3.30;;
43628;SDS011;56545;48.224;11.678;2023-08-06T02:30:03;5.25;;;3.35;;
43628;SDS011;56545;48.224;11.678;2023-08-06T02:32:29;6.43;;;3.30;;
43628;SDS011;56545;48.224;11.678;2023-08-06T02:34:57;6.28;;;3.60;;
43628;SDS011;56545;48.224;11.678;2023-08-06T02:37:23;7.10;;;3.47;;
43628;SDS011;56545;48.224;11.678;2023-08-06T02:39:49;5.30;;;3.10;;
43628;SDS011;56545;48.224;11.678;2023-08-06T02:42:14;6.75;;;3.28;;
43628;SDS011;56545;48.224;11.678;2023-08-06T02:44:40;6.15;;;3.10;;
43628;SDS011;56545;48.224;11.678;2023-08-06T02:47:06;7.50;;;3.25;;
43628;SDS011;56545;48.224;11.678;2023-08-06T02:49:32;5.30;;;2.72;;
43628;SDS011;56545;48.224;11.678;2023-08-06T02:51:58;6.63;;;3.00;;
43628;SDS011;56545;48.224;11.678;2023-08-06T02:54:24;6.05;;;3.08;;
43628;SDS011;56545;48.224;11.678;2023-08-06T02:56:50;4.47;;;2.60;;
43628;SDS011;56545;48.224;11.678;2023-08-06T02:59:16;6.70;;;3.05;;
43628;SDS011;56545;48.224;11.678;2023-08-06T03:01:42;5.00;;;2.80;;
43628;SDS011;56545;48.224;11.678;2023-08-06T03:04:07;7.03;;;3.28;;
43628;SDS011;56545;48.224;11.678;2023-08-06T03:06:33;4.88;;;2.60;;
43628;SDS011;56545;48.224;11.678;2023-08-06T03:08:59;5.50;;;2.80;;
43628;SDS011;56545;48.224;11.678;2023-08-06T03:11:25;5.10;;;2.90;;
43628;SDS011;56545;48.224;11.678;2023-08-06T03:13:51;5.18;;;2.50;;
43628;SDS011;56545;48.224;11.678;2023-08-06T03:16:17;6.47;;;2.40;;
43628;SDS011;56545;48.224;11.678;2023-08-06T03:18:43;6.38;;;2.80;;
43628;SDS011;56545;48.224;11.678;2023-08-06T03:21:09;4.28;;;2.80;;
43628;SDS011;56545;48.224;11.678;2023-08-06T03:23:35;5.53;;;2.90;;
43628;SDS011;56545;48.224;11.678;2023-08-06T03:26:01;4.85;;;2.70;;
43628;SDS011;56545;48.224;11.678;2023-08-06T03:28:28;4.47;;;2.72;;
43628;SDS011;56545;48.224;11.678;2023-08-06T03:31:03;4.35;;;2.72;;
43628;SDS011;56545;48.224;11.678;2023-08-06T03:33:30;6.30;;;2.95;;
43628;SDS011;56545;48.224;11.678;2023-08-06T03:35:56;4.15;;;2.55;;
43628;SDS011;56545;48.224;11.678;2023-08-06T03:38:22;5.35;;;2.80;;
43628;SDS011;56545;48.224;11.678;2023-08-06T03:40:48;4.45;;;2.53;;
43628;SDS011;56545;48.224;11.678;2023-08-06T03:43:14;4.97;;;2.67;;
43628;SDS011;56545;48.224;11.678;2023-08-06T03:45:40;6.68;;;2.30;;
43628;SDS011;56545;48.224;11.678;2023-08-06T03:48:07;4.68;;;2.25;;
43628;SDS011;56545;48.224;11.678;2023-08-06T03:50:33;4.65;;;2.38;;
43628;SDS011;56545;48.224;11.678;2023-08-06T03:52:59;6.95;;;2.50;;
43628;SDS011;56545;48.224;11.678;2023-08-06T03:55:25;4.68;;;2.30;;
43628;SDS011;56545;48.224;11.678;2023-08-06T03:57:51;5.00;;;2.58;;
43628;SDS011;56545;48.224;11.678;2023-08-06T04:00:17;5.63;;;2.53;;
43628;SDS011;56545;48.224;11.678;2023-08-06T04:02:43;4.28;;;2.20;;
43628;SDS011;56545;48.224;11.678;2023-08-06T04:05:09;6.30;;;2.47;;
43628;SDS011;56545;48.224;11.678;2023-08-06T04:07:35;4.45;;;2.40;;
43628;SDS011;56545;48.224;11.678;2023-08-06T04:10:03;3.92;;;2.10;;
43628;SDS011;56545;48.224;11.678;2023-08-06T04:12:30;4.03;;;2.25;;
43628;SDS011;56545;48.224;11.678;2023-08-06T04:14:57;5.15;;;2.35;;
43628;SDS011;56545;48.224;11.678;2023-08-06T04:17:24;6.47;;;2.60;;
43628;SDS011;56545;48.224;11.678;2023-08-06T04:19:51;6.65;;;2.60;;
43628;SDS011;56545;48.224;11.678;2023-08-06T04:22:18;4.10;;;2.20;;
43628;SDS011;56545;48.224;11.678;2023-08-06T04:24:44;4.43;;;1.90;;
43628;SDS011;56545;48.224;11.678;2023-08-06T04:27:10;4.93;;;1.80;;
43628;SDS011;56545;48.224;11.678;2023-08-06T04:29:37;4.68;;;2.10;;
43628;SDS011;56545;48.224;11.678;2023-08-06T04:32:05;5.90;;;2.45;;
43628;SDS011;56545;48.224;11.678;2023-08-06T04:34:32;4.03;;;2.10;;
43628;SDS011;56545;48.224;11.678;2023-08-06T04:36:58;7.05;;;2.08;;
43628;SDS011;56545;48.224;11.678;2023-08-06T04:39:25;4.50;;;1.98;;
43628;SDS011;56545;48.224;11.678;2023-08-06T04:41:51;5.40;;;1.83;;
43628;SDS011;56545;48.224;11.678;2023-08-06T04:44:17;4.10;;;2.13;;
43628;SDS011;56545;48.224;11.678;2023-08-06T04:46:43;5.85;;;2.10;;
43628;SDS011;56545;48.224;11.678;2023-08-06T04:49:09;3.58;;;1.70;;
43628;SDS011;56545;48.224;11.678;2023-08-06T04:51:34;2.95;;;1.60;;
43628;SDS011;56545;48.224;11.678;2023-08-06T04:54:00;3.92;;;2.00;;
43628;SDS011;56545;48.224;11.678;2023-08-06T04:56:26;2.75;;;1.65;;
43628;SDS011;56545;48.224;11.678;2023-08-06T04:58:52;3.78;;;1.90;;
43628;SDS011;56545;48.224;11.678;2023-08-06T05:01:18;3.42;;;1.70;;
43628;SDS011;56545;48.224;11.678;2023-08-06T05:03:44;3.65;;;1.77;;
43628;SDS011;56545;48.224;11.678;2023-08-06T05:06:11;3.70;;;1.80;;
43628;SDS011;56545;48.224;11.678;2023-08-06T05:08:37;3.72;;;2.13;;
43628;SDS011;56545;48.224;11.678;2023-08-06T05:11:03;4.65;;;1.98;;
43628;SDS011;56545;48.224;11.678;2023-08-06T05:13:29;2.88;;;1.67;;
43628;SDS011;56545;48.224;11.678;2023-08-06T05:15:55;6.60;;;1.83;;
43628;SDS011;56545;48.224;11.678;2023-08-06T05:18:21;3.42;;;1.50;;
43628;SDS011;56545;48.224;11.678;2023-08-06T05:20:47;4.68;;;2.00;;
43628;SDS011;56545;48.224;11.678;2023-08-06T05:23:13;3.00;;;1.80;;
43628;SDS011;56545;48.224;11.678;2023-08-06T05:25:39;4.22;;;1.70;;
43628;SDS011;56545;48.224;11.678;2023-08-06T05:28:05;3.13;;;1.70;;
43628;SDS011;56545;48.224;11.678;2023-08-06T05:30:31;5.50;;;2.08;;
43628;SDS011;56545;48.224;11.678;2023-08-06T05:32:57;4.15;;;1.75;;
43628;SDS011;56545;48.224;11.678;2023-08-06T05:35:23;3.40;;;1.60;;
43628;SDS011;56545;48.224;11.678;2023-08-06T05:37:49;3.40;;;1.63;;
43628;SDS011;56545;48.224;11.678;2023-08-06T05:40:15;3.00;;;1.60;;
43628;SDS011;56545;48.224;11.678;2023-08-06T05:42:41;4.78;;;1.70;;
43628;SDS011;56545;48.224;11.678;2023-08-06T05:45:07;5.88;;;1.98;;
43628;SDS011;56545;48.224;11.678;2023-08-06T05:47:34;3.05;;;1.60;;
43628;SDS011;56545;48.224;11.678;2023-08-06T05:50:00;3.85;;;1.73;;
43628;SDS011;56545;48.224;11.678;2023-08-06T05:52:26;2.95;;;1.60;;
43628;SDS011;56545;48.224;11.678;2023-08-06T05:54:52;3.38;;;1.70;;
43628;SDS011;56545;48.224;11.678;2023-08-06T05:57:18;3.35;;;1.75;;
43628;SDS011;56545;48.224;11.678;2023-08-06T05:59:44;3.80;;;1.80;;
43628;SDS011;56545;48.224;11.678;2023-08-06T06:02:10;4.38;;;1.80;;
43628;SDS011;56545;48.224;11.678;2023-08-06T06:04:36;4.22;;;2.00;;
43628;SDS011;56545;48.224;11.678;2023-08-06T06:07:02;4.72;;;1.70;;
43628;SDS011;56545;48.224;11.678;2023-08-06T06:09:28;5.90;;;1.88;;
43628;SDS011;56545;48.224;11.678;2023-08-06T06:11:54;7.13;;;1.95;;
43628;SDS011;56545;48.224;11.678;2023-08-06T06:14:20;3.58;;;1.80;;
43628;SDS011;56545;48.224;11.678;2023-08-06T06:16:46;3.28;;;1.60;;
43628;SDS011;56545;48.224;11.678;2023-08-06T06:19:12;3.85;;;1.75;;
43628;SDS011;56545;48.224;11.678;2023-08-06T06:21:38;3.60;;;1.70;;
43628;SDS011;56545;48.224;11.678;2023-08-06T06:24:05;3.75;;;1.80;;
43628;SDS011;56545;48.224;11.678;2023-08-06T06:26:31;4.32;;;1.80;;
43628;SDS011;56545;48.224;11.678;2023-08-06T06:28:57;4.65;;;1.73;;
43628;SDS011;56545;48.224;11.678;2023-08-06T06:31:23;4.70;;;1.70;;
43628;SDS011;56545;48.224;11.678;2023-08-06T06:33:49;4.38;;;1.63;;
43628;SDS011;56545;48.224;11.678;2023-08-06T06:36:15;3.70;;;1.70;;
43628;SDS011;56545;48.224;11.678;2023-08-06T06:38:41;4.00;;;1.80;;
43628;SDS011;56545;48.224;11.678;2023-08-06T06:41:07;4.18;;;1.73;;
43628;SDS011;56545;48.224;11.678;2023-08-06T06:43:33;4.07;;;2.10;;
43628;SDS011;56545;48.224;11.678;2023-08-06T06:45:59;3.05;;;1.67;;
43628;SDS011;56545;48.224;11.678;2023-08-06T06:48:26;4.90;;;1.60;;
43628;SDS011;56545;48.224;11.678;2023-08-06T06:50:55;3.97;;;1.60;;
43628;SDS011;56545;48.224;11.678;2023-08-06T06:53:21;4.07;;;1.52;;
43628;SDS011;56545;48.224;11.678;2023-08-06T06:55:54;3.33;;;1.40;;
43628;SDS011;56545;48.224;11.678;2023-08-06T06:58:20;3.80;;;1.58;;
43628;SDS011;56545;48.224;11.678;2023-08-06T07:00:46;3.47;;;1.38;;
43628;SDS011;56545;48.224;11.678;2023-08-06T07:03:13;3.35;;;1.20;;
43628;SDS011;56545;48.224;11.678;2023-08-06T07:05:43;2.83;;;1.35;;
43628;SDS011;56545;48.224;11.678;2023-08-06T07:08:09;2.15;;;1.17;;
43628;SDS011;56545;48.224;11.678;2023-08-06T07:10:36;4.85;;;1.10;;
43628;SDS011;56545;48.224;11.678;2023-08-06T07:13:02;2.35;;;1.23;;
43628;SDS011;56545;48.224;11.678;2023-08-06T07:15:28;3.00;;;1.20;;
43628;SDS011;56545;48.224;11.678;2023-08-06T07:17:54;4.60;;;1.40;;
43628;SDS011;56545;48.224;11.678;2023-08-06T07:20:20;3.03;;;1.40;;
43628;SDS011;56545;48.224;11.678;2023-08-06T07:22:46;2.65;;;1.15;;
43628;SDS011;56545;48.224;11.678;2023-08-06T07:25:12;3.83;;;1.10;;
43628;SDS011;56545;48.224;11.678;2023-08-06T07:27:38;4.97;;;1.17;;
43628;SDS011;56545;48.224;11.678;2023-08-06T07:30:04;3.15;;;1.10;;
43628;SDS011;56545;48.224;11.678;2023-08-06T07:32:31;2.50;;;0.90;;
43628;SDS011;56545;48.224;11.678;2023-08-06T07:34:57;3.33;;;0.70;;
43628;SDS011;56545;48.224;11.678;2023-08-06T07:37:25;2.80;;;0.85;;
43628;SDS011;56545;48.224;11.678;2023-08-06T07:39:53;3.00;;;0.90;;
43628;SDS011;56545;48.224;11.678;2023-08-06T07:42:19;1.98;;;0.68;;
43628;SDS011;56545;48.224;11.678;2023-08-06T07:44:55;1.95;;;0.65;;
43628;SDS011;56545;48.224;11.678;2023-08-06T07:47:23;0.98;;;0.45;;
43628;SDS011;56545;48.224;11.678;2023-08-06T07:49:49;1.95;;;0.70;;
43628;SDS011;56545;48.224;11.678;2023-08-06T07:52:15;1.23;;;0.57;;
43628;SDS011;56545;48.224;11.678;2023-08-06T07:54:41;1.27;;;0.70;;
43628;SDS011;56545;48.224;11.678;2023-08-06T07:57:07;2.85;;;0.70;;
43628;SDS011;56545;48.224;11.678;2023-08-06T07:59:33;1.00;;;0.60;;
43628;SDS011;56545;48.224;11.678;2023-08-06T08:01:59;2.33;;;0.77;;
43628;SDS011;56545;48.224;11.678;2023-08-06T08:04:25;3.55;;;0.75;;
43628;SDS011;56545;48.224;11.678;2023-08-06T08:06:51;3.55;;;0.73;;
43628;SDS011;56545;48.224;11.678;2023-08-06T08:09:17;1.83;;;0.80;;
43628;SDS011;56545;48.224;11.678;2023-08-06T08:11:43;2.80;;;0.93;;
43628;SDS011;56545;48.224;11.678;2023-08-06T08:14:09;2.50;;;0.93;;
43628;SDS011;56545;48.224;11.678;2023-08-06T08:16:34;1.30;;;0.65;;
43628;SDS011;56545;48.224;11.678;2023-08-06T08:19:00;3.03;;;0.60;;
43628;SDS011;56545;48.224;11.678;2023-08-06T08:21:28;2.00;;;0.90;;
43628;SDS011;56545;48.224;11.678;2023-08-06T08:23:54;1.70;;;0.70;;
43628;SDS011;56545;48.224;11.678;2023-08-06T08:26:20;1.60;;;0.70;;
43628;SDS011;56545;48.224;11.678;2023-08-06T08:28:47;2.72;;;0.93;;
43628;SDS011;56545;48.224;11.678;2023-08-06T08:31:13;1.45;;;0.70;;
43628;SDS011;56545;48.224;11.678;2023-08-06T08:33:40;3.70;;;0.70;;
43628;SDS011;56545;48.224;11.678;2023-08-06T08:36:06;3.33;;;0.93;;
43628;SDS011;56545;48.224;11.678;2023-08-06T08:38:32;1.20;;;0.60;;
43628;SDS011;56545;48.224;11.678;2023-08-06T08:40:58;3.20;;;0.68;;
43628;SDS011;56545;48.224;11.678;2023-08-06T08:43:24;1.67;;;0.73;;
43628;SDS011;56545;48.224;11.678;2023-08-06T08:45:51;2.40;;;0.75;;
43628;SDS011;56545;48.224;11.678;2023-08-06T08:48:23;2.50;;;0.70;;
43628;SDS011;56545;48.224;11.678;2023-08-06T08:50:50;1.70;;;0.55;;
43628;SDS011;56545;48.224;11.678;2023-08-06T08:53:17;2.13;;;0.60;;
43628;SDS011;56545;48.224;11.678;2023-08-06T08:55:47;2.10;;;0.68;;
43628;SDS011;56545;48.224;11.678;2023-08-06T08:58:14;2.33;;;0.70;;
43628;SDS011;56545;48.224;11.678;2023-08-06T09:00:44;2.58;;;0.50;;
43628;SDS011;56545;48.224;11.678;2023-08-06T09:03:13;3.22;;;0.55;;
43628;SDS011;56545;48.224;11.678;2023-08-06T09:05:40;1.88;;;0.60;;
43628;SDS011;56545;48.224;11.678;2023-08-06T09:08:11;2.05;;;0.40;;
43628;SDS011;56545;48.224;11.678;2023-08-06T09:10:40;2.90;;;0.50;;
43628;SDS011;56545;48.224;11.678;2023-08-06T09:13:07;1.38;;;0.50;;
43628;SDS011;56545;48.224;11.678;2023-08-06T09:15:33;1.10;;;0.40;;
43628;SDS011;56545;48.224;11.678;2023-08-06T09:17:59;3.22;;;0.68;;
43628;SDS011;56545;48.224;11.678;2023-08-06T09:23:06;1.25;;;0.40;;
43628;SDS011;56545;48.224;11.678;2023-08-06T09:25:35;1.63;;;0.50;;
43628;SDS011;56545;48.224;11.678;2023-08-06T09:28:06;1.50;;;0.38;;
43628;SDS011;56545;48.224;11.678;2023-08-06T09:30:33;0.50;;;0.40;;
43628;SDS011;56545;48.224;11.678;2023-08-06T09:33:03;1.95;;;0.50;;
43628;SDS011;56545;48.224;11.678;2023-08-06T09:35:35;1.60;;;0.40;;
43628;SDS011;56545;48.224;11.678;2023-08-06T09:38:05;2.47;;;0.40;;
43628;SDS011;56545;48.224;11.678;2023-08-06T09:40:35;2.15;;;0.40;;
43628;SDS011;56545;48.224;11.678;2023-08-06T09:43:01;2.67;;;0.35;;
43628;SDS011;56545;48.224;11.678;2023-08-06T09:45:29;1.27;;;0.50;;
43628;SDS011;56545;48.224;11.678;2023-08-06T09:47:58;2.13;;;0.57;;
43628;SDS011;56545;48.224;11.678;2023-08-06T09:50:28;1.73;;;0.45;;
43628;SDS011;56545;48.224;11.678;2023-08-06T09:52:56;3.30;;;0.70;;
43628;SDS011;56545;48.224;11.678;2023-08-06T09:55:23;3.22;;;0.40;;
43628;SDS011;56545;48.224;11.678;2023-08-06T09:57:51;0.73;;;0.30;;
43628;SDS011;56545;48.224;11.678;2023-08-06T10:00:18;0.98;;;0.20;;
43628;SDS011;56545;48.224;11.678;2023-08-06T10:02:45;0.82;;;0.20;;
43628;SDS011;56545;48.224;11.678;2023-08-06T10:05:11;1.15;;;0.38;;
43628;SDS011;56545;48.224;11.678;2023-08-06T10:07:37;1.48;;;0.40;;
43628;SDS011;56545;48.224;11.678;2023-08-06T10:10:04;0.98;;;0.22;;
43628;SDS011;56545;48.224;11.678;2023-08-06T10:12:32;0.80;;;0.20;;
43628;SDS011;56545;48.224;11.678;2023-08-06T10:15:03;1.95;;;0.30;;
43628;SDS011;56545;48.224;11.678;2023-08-06T10:17:32;1.17;;;0.30;;
43628;SDS011;56545;48.224;11.678;2023-08-06T10:20:01;1.17;;;0.30;;
43628;SDS011;56545;48.224;11.678;2023-08-06T10:22:29;0.30;;;0.20;;
43628;SDS011;56545;48.224;11.678;2023-08-06T10:24:59;1.80;;;0.30;;
43628;SDS011;56545;48.224;11.678;2023-08-06T10:30:14;1.42;;;0.20;;
43628;SDS011;56545;48.224;11.678;2023-08-06T10:32:54;1.40;;;0.30;;
43628;SDS011;56545;48.224;11.678;2023-08-06T10:35:37;0.90;;;0.20;;
43628;SDS011;56545;48.224;11.678;2023-08-06T10:38:19;1.10;;;0.20;;
43628;SDS011;56545;48.224;11.678;2023-08-06T10:43:35;1.52;;;0.20;;
43628;SDS011;56545;48.224;11.678;2023-08-06T10:46:11;0.90;;;0.10;;
43628;SDS011;56545;48.224;11.678;2023-08-06T10:48:46;2.65;;;0.30;;
43628;SDS011;56545;48.224;11.678;2023-08-06T10:51:13;0.70;;;0.13;;
43628;SDS011;56545;48.224;11.678;2023-08-06T10:53:42;0.22;;;0.10;;
43628;SDS011;56545;48.224;11.678;2023-08-06T10:56:13;0.47;;;0.28;;
43628;SDS011;56545;48.224;11.678;2023-08-06T10:58:40;1.08;;;0.20;;
43628;SDS011;56545;48.224;11.678;2023-08-06T11:01:06;2.95;;;0.30;;
43628;SDS011;56545;48.224;11.678;2023-08-06T11:03:33;0.65;;;0.25;;
43628;SDS011;56545;48.224;11.678;2023-08-06T11:05:59;0.20;;;0.10;;
43628;SDS011;56545;48.224;11.678;2023-08-06T11:08:26;0.73;;;0.10;;
43628;SDS011;56545;48.224;11.678;2023-08-06T11:10:52;0.63;;;0.20;;
43628;SDS011;56545;48.224;11.678;2023-08-06T11:13:19;0.50;;;0.20;;
43628;SDS011;56545;48.224;11.678;2023-08-06T11:15:46;0.43;;;0.17;;
43628;SDS011;56545;48.224;11.678;2023-08-06T11:18:12;0.30;;;0.10;;
43628;SDS011;56545;48.224;11.678;2023-08-06T11:20:38;1.88;;;0.40;;
43628;SDS011;56545;48.224;11.678;2023-08-06T11:23:05;1.45;;;0.63;;
43628;SDS011;56545;48.224;11.678;2023-08-06T11:25:31;1.35;;;0.22;;
43628;SDS011;56545;48.224;11.678;2023-08-06T11:28:01;1.02;;;0.10;;
43628;SDS011;56545;48.224;11.678;2023-08-06T11:30:27;2.20;;;0.20;;
43628;SDS011;56545;48.224;11.678;2023-08-06T11:32:53;0.77;;;0.20;;
43628;SDS011;56545;48.224;11.678;2023-08-06T11:35:19;0.95;;;0.15;;
43628;SDS011;56545;48.224;11.678;2023-08-06T11:37:45;0.00;;;0.00;;
43628;SDS011;56545;48.224;11.678;2023-08-06T11:40:11;0.35;;;0.03;;
43628;SDS011;56545;48.224;11.678;2023-08-06T11:42:39;0.10;;;0.00;;
43628;SDS011;56545;48.224;11.678;2023-08-06T11:45:05;0.17;;;0.10;;
43628;SDS011;56545;48.224;11.678;2023-08-06T11:47:33;0.80;;;0.30;;
43628;SDS011;56545;48.224;11.678;2023-08-06T11:50:02;0.65;;;0.20;;
43628;SDS011;56545;48.224;11.678;2023-08-06T11:52:29;1.92;;;0.50;;
43628;SDS011;56545;48.224;11.678;2023-08-06T11:57:33;1.23;;;0.30;;
43628;SDS011;56545;48.224;11.678;2023-08-06T12:00:06;1.77;;;0.32;;
43628;SDS011;56545;48.224;11.678;2023-08-06T12:02:34;0.88;;;0.10;;
43628;SDS011;56545;48.224;11.678;2023-08-06T12:05:09;0.95;;;0.40;;
43628;SDS011;56545;48.224;11.678;2023-08-06T12:07:51;0.52;;;0.20;;
43628;SDS011;56545;48.224;11.678;2023-08-06T12:10:20;0.47;;;0.20;;
43628;SDS011;56545;48.224;11.678;2023-08-06T12:12:47;1.20;;;0.10;;
43628;SDS011;56545;48.224;11.678;2023-08-06T12:15:13;1.15;;;0.20;;
43628;SDS011;56545;48.224;11.678;2023-08-06T12:17:39;2.13;;;0.15;;
43628;SDS011;56545;48.224;11.678;2023-08-06T12:20:06;3.47;;;1.33;;
43628;SDS011;56545;48.224;11.678;2023-08-06T12:22:33;0.45;;;0.17;;
43628;SDS011;56545;48.224;11.678;2023-08-06T12:25:04;0.20;;;0.10;;
43628;SDS011;56545;48.224;11.678;2023-08-06T12:27:33;0.70;;;0.20;;
43628;SDS011;56545;48.224;11.678;2023-08-06T12:30:03;0.43;;;0.10;;
43628;SDS011;56545;48.224;11.678;2023-08-06T12:32:29;0.20;;;0.10;;
43628;SDS011;56545;48.224;11.678;2023-08-06T12:34:55;0.32;;;0.10;;
43628;SDS011;56545;48.224;11.678;2023-08-06T12:37:21;0.32;;;0.15;;
43628;SDS011;56545;48.224;11.678;2023-08-06T12:39:48;1.23;;;0.13;;
43628;SDS011;56545;48.224;11.678;2023-08-06T12:42:14;0.65;;;0.10;;
43628;SDS011;56545;48.224;11.678;2023-08-06T12:44:40;1.35;;;0.20;;
43628;SDS011;56545;48.224;11.678;2023-08-06T12:47:07;2.47;;;0.20;;
43628;SDS011;56545;48.224;11.678;2023-08-06T12:49:33;1.48;;;0.10;;
43628;SDS011;56545;48.224;11.678;2023-08-06T12:51:59;0.30;;;0.10;;
43628;SDS011;56545;48.224;11.678;2023-08-06T12:54:25;0.20;;;0.03;;
43628;SDS011;56545;48.224;11.678;2023-08-06T12:56:52;1.13;;;0.10;;
43628;SDS011;56545;48.224;11.678;2023-08-06T12:59:18;0.68;;;0.10;;
43628;SDS011;56545;48.224;11.678;2023-08-06T13:01:44;1.05;;;0.10;;
43628;SDS011;56545;48.224;11.678;2023-08-06T13:04:11;1.35;;;0.10;;
43628;SDS011;56545;48.224;11.678;2023-08-06T13:06:37;0.25;;;0.10;;
43628;SDS011;56545;48.224;11.678;2023-08-06T13:09:05;1.55;;;0.20;;
43628;SDS011;56545;48.224;11.678;2023-08-06T13:11:33;0.52;;;0.10;;
43628;SDS011;56545;48.224;11.678;2023-08-06T13:14:10;0.30;;;0.10;;
43628;SDS011;56545;48.224;11.678;2023-08-06T13:16:37;1.08;;;0.20;;
43628;SDS011;56545;48.224;11.678;2023-08-06T13:19:04;0.20;;;0.10;;
43628;SDS011;56545;48.224;11.678;2023-08-06T13:21:35;3.55;;;1.70;;
43628;SDS011;56545;48.224;11.678;2023-08-06T13:24:15;0.25;;;0.20;;
43628;SDS011;56545;48.224;11.678;2023-08-06T13:26:41;0.80;;;0.10;;
43628;SDS011;56545;48.224;11.678;2023-08-06T13:29:07;0.98;;;0.20;;
43628;SDS011;56545;48.224;11.678;2023-08-06T13:31:33;0.40;;;0.10;;
43628;SDS011;56545;48.224;11.678;2023-08-06T13:33:58;0.28;;;0.10;;
43628;SDS011;56545;48.224;11.678;2023-08-06T13:36:25;1.13;;;0.20;;
43628;SDS011;56545;48.224;11.678;2023-08-06T13:38:52;0.47;;;0.10;;
43628;SDS011;56545;48.224;11.678;2023-08-06T13:41:18;0.30;;;0.15;;
43628;SDS011;56545;48.224;11.678;2023-08-06T13:43:43;0.65;;;0.17;;
43628;SDS011;56545;48.224;11.678;2023-08-06T13:46:10;0.40;;;0.10;;
43628;SDS011;56545;48.224;11.678;2023-08-06T13:48:43;0.47;;;0.20;;
43628;SDS011;56545;48.224;11.678;2023-08-06T13:51:10;1.15;;;0.15;;
43628;SDS011;56545;48.224;11.678;2023-08-06T13:53:36;0.30;;;0.20;;
43628;SDS011;56545;48.224;11.678;2023-08-06T13:56:05;2.00;;;0.17;;
43628;SDS011;56545;48.224;11.678;2023-08-06T13:58:32;0.45;;;0.10;;
43628;SDS011;56545;48.224;11.678;2023-08-06T14:00:58;0.75;;;0.10;;
43628;SDS011;56545;48.224;11.678;2023-08-06T14:03:24;1.45;;;0.10;;
43628;SDS011;56545;48.224;11.678;2023-08-06T14:05:50;0.50;;;0.13;;
43628;SDS011;56545;48.224;11.678;2023-08-06T14:08:16;0.65;;;0.20;;
43628;SDS011;56545;48.224;11.678;2023-08-06T14:10:45;0.70;;;0.20;;
43628;SDS011;56545;48.224;11.678;2023-08-06T14:13:11;0.45;;;0.10;;
43628;SDS011;56545;48.224;11.678;2023-08-06T14:15:37;2.50;;;0.40;;
43628;SDS011;56545;48.224;11.678;2023-08-06T14:18:06;0.32;;;0.10;;
43628;SDS011;56545;48.224;11.678;2023-08-06T14:20:33;1.20;;;0.20;;
43628;SDS011;56545;48.224;11.678;2023-08-06T14:22:59;0.43;;;0.20;;
43628;SDS011;56545;48.224;11.678;2023-08-06T14:25:26;1.35;;;0.10;;
43628;SDS011;56545;48.224;11.678;2023-08-06T14:27:52;0.63;;;0.20;;
43628;SDS011;56545;48.224;11.678;2023-08-06T14:30:18;0.13;;;0.10;;
43628;SDS011;56545;48.224;11.678;2023-08-06T14:32:44;1.10;;;0.20;;
43628;SDS011;56545;48.224;11.678;2023-08-06T14:35:10;0.60;;;0.30;;
43628;SDS011;56545;48.224;11.678;2023-08-06T14:37:36;1.02;;;0.20;;
43628;SDS011;56545;48.224;11.678;2023-08-06T14:40:02;1.48;;;0.30;;
43628;SDS011;56545;48.224;11.678;2023-08-06T14:42:28;1.40;;;0.10;;
43628;SDS011;56545;48.224;11.678;2023-08-06T14:44:54;0.30;;;0.10;;
43628;SDS011;56545;48.224;11.678;2023-08-06T14:47:20;0.43;;;0.15;;
43628;SDS011;56545;48.224;11.678;2023-08-06T14:49:46;1.45;;;0.20;;